sensor_id;sensor_type;location;lat;lon;timestamp;P1;durP1;ratioP1;P2;durP2;ratioP2
6053;SDS011;3055;50.886;14.814;2023-06-10T00:01:52;7.70;;;6.90;;
6053;SDS011;3055;50.886;14.814;2023-06-10T00:04:23;9.17;;;7.70;;
6053;SDS011;3055;50.886;14.814;2023-06-10T00:06:50;10.40;;;7.87;;
6053;SDS011;3055;50.886;14.814;2023-06-10T00:09:17;8.60;;;7.90;;
6053;SDS011;3055;50.886;14.814;2023-06-10T00:11:44;11.13;;;8.87;;
6053;SDS011;3055;50.886;14.814;2023-06-10T00:14:13;9.33;;;8.43;;
6053;SDS011;3055;50.886;14.814;2023-06-10T00:16:40;9.73;;;8.60;;
6053;SDS011;3055;50.886;14.814;2023-06-10T00:19:10;9.70;;;8.47;;
6053;SDS011;3055;50.886;14.814;2023-06-10T00:21:39;9.23;;;8.33;;
6053;SDS011;3055;50.886;14.814;2023-06-10T00:24:06;10.40;;;8.33;;
6053;SDS011;3055;50.886;14.814;2023-06-10T00:26:36;8.33;;;7.53;;
6053;SDS011;3055;50.886;14.814;2023-06-10T00:29:03;8.60;;;7.70;;
6053;SDS011;3055;50.886;14.814;2023-06-10T00:31:32;8.17;;;7.47;;
6053;SDS011;3055;50.886;14.814;2023-06-10T00:34:00;9.07;;;8.10;;
6053;SDS011;3055;50.886;14.814;2023-06-10T00:36:28;8.83;;;8.03;;
6053;SDS011;3055;50.886;14.814;2023-06-10T00:38:56;9.53;;;8.67;;
6053;SDS011;3055;50.886;14.814;2023-06-10T00:41:23;8.80;;;8.00;;
6053;SDS011;3055;50.886;14.814;2023-06-10T00:43:51;10.67;;;8.47;;
6053;SDS011;3055;50.886;14.814;2023-06-10T00:46:18;9.43;;;8.43;;
6053;SDS011;3055;50.886;14.814;2023-06-10T00:48:48;8.60;;;7.70;;
6053;SDS011;3055;50.886;14.814;2023-06-10T00:51:16;9.43;;;7.90;;
6053;SDS011;3055;50.886;14.814;2023-06-10T00:53:43;9.10;;;7.77;;
6053;SDS011;3055;50.886;14.814;2023-06-10T00:56:11;7.97;;;6.93;;
6053;SDS011;3055;50.886;14.814;2023-06-10T00:58:39;6.90;;;6.03;;
6053;SDS011;3055;50.886;14.814;2023-06-10T01:01:06;7.50;;;5.93;;
6053;SDS011;3055;50.886;14.814;2023-06-10T01:03:35;6.10;;;5.60;;
6053;SDS011;3055;50.886;14.814;2023-06-10T01:06:06;8.00;;;5.43;;
6053;SDS011;3055;50.886;14.814;2023-06-10T01:08:44;6.17;;;5.23;;
6053;SDS011;3055;50.886;14.814;2023-06-10T01:11:19;5.83;;;5.33;;
6053;SDS011;3055;50.886;14.814;2023-06-10T01:13:50;6.03;;;5.43;;
6053;SDS011;3055;50.886;14.814;2023-06-10T01:16:21;6.00;;;5.40;;
6053;SDS011;3055;50.886;14.814;2023-06-10T01:18:48;5.47;;;5.07;;
6053;SDS011;3055;50.886;14.814;2023-06-10T01:21:19;5.90;;;5.30;;
6053;SDS011;3055;50.886;14.814;2023-06-10T01:23:49;5.50;;;5.00;;
6053;SDS011;3055;50.886;14.814;2023-06-10T01:26:18;5.00;;;4.60;;
6053;SDS011;3055;50.886;14.814;2023-06-10T01:28:49;5.30;;;4.90;;
6053;SDS011;3055;50.886;14.814;2023-06-10T01:31:20;5.77;;;5.03;;
6053;SDS011;3055;50.886;14.814;2023-06-10T01:33:59;5.30;;;4.77;;
6053;SDS011;3055;50.886;14.814;2023-06-10T01:36:29;5.70;;;5.30;;
6053;SDS011;3055;50.886;14.814;2023-06-10T01:38:57;6.37;;;4.73;;
6053;SDS011;3055;50.886;14.814;2023-06-10T01:41:27;4.77;;;4.47;;
6053;SDS011;3055;50.886;14.814;2023-06-10T01:43:55;7.43;;;5.20;;
6053;SDS011;3055;50.886;14.814;2023-06-10T01:46:22;5.93;;;5.43;;
6053;SDS011;3055;50.886;14.814;2023-06-10T01:48:49;5.47;;;4.97;;
6053;SDS011;3055;50.886;14.814;2023-06-10T01:51:16;5.63;;;5.13;;
6053;SDS011;3055;50.886;14.814;2023-06-10T01:53:44;5.60;;;5.10;;
6053;SDS011;3055;50.886;14.814;2023-06-10T01:56:11;5.67;;;5.17;;
6053;SDS011;3055;50.886;14.814;2023-06-10T01:58:43;5.63;;;5.13;;
6053;SDS011;3055;50.886;14.814;2023-06-10T02:01:10;5.33;;;4.93;;
6053;SDS011;3055;50.886;14.814;2023-06-10T02:03:37;5.40;;;5.00;;
6053;SDS011;3055;50.886;14.814;2023-06-10T02:06:05;5.63;;;4.80;;
6053;SDS011;3055;50.886;14.814;2023-06-10T02:08:32;5.60;;;5.20;;
6053;SDS011;3055;50.886;14.814;2023-06-10T02:11:03;5.67;;;4.97;;
6053;SDS011;3055;50.886;14.814;2023-06-10T02:13:32;5.87;;;5.37;;
6053;SDS011;3055;50.886;14.814;2023-06-10T02:15:59;5.30;;;4.90;;
6053;SDS011;3055;50.886;14.814;2023-06-10T02:18:26;5.80;;;5.13;;
6053;SDS011;3055;50.886;14.814;2023-06-10T02:20:54;5.50;;;5.00;;
6053;SDS011;3055;50.886;14.814;2023-06-10T02:23:21;6.27;;;5.67;;
6053;SDS011;3055;50.886;14.814;2023-06-10T02:25:48;5.57;;;5.17;;
6053;SDS011;3055;50.886;14.814;2023-06-10T02:28:16;5.10;;;4.70;;
6053;SDS011;3055;50.886;14.814;2023-06-10T02:30:43;5.57;;;5.17;;
6053;SDS011;3055;50.886;14.814;2023-06-10T02:33:11;5.97;;;5.47;;
6053;SDS011;3055;50.886;14.814;2023-06-10T02:35:39;5.60;;;5.20;;
6053;SDS011;3055;50.886;14.814;2023-06-10T02:38:06;6.17;;;5.43;;
6053;SDS011;3055;50.886;14.814;2023-06-10T02:40:33;6.03;;;4.93;;
6053;SDS011;3055;50.886;14.814;2023-06-10T02:43:00;5.83;;;5.33;;
6053;SDS011;3055;50.886;14.814;2023-06-10T02:45:28;5.30;;;4.90;;
6053;SDS011;3055;50.886;14.814;2023-06-10T02:47:55;5.37;;;4.97;;
6053;SDS011;3055;50.886;14.814;2023-06-10T02:50:22;6.43;;;5.90;;
6053;SDS011;3055;50.886;14.814;2023-06-10T02:52:49;9.00;;;6.87;;
6053;SDS011;3055;50.886;14.814;2023-06-10T02:55:16;8.80;;;6.57;;
6053;SDS011;3055;50.886;14.814;2023-06-10T02:57:43;6.90;;;5.90;;
6053;SDS011;3055;50.886;14.814;2023-06-10T03:00:11;6.83;;;6.17;;
6053;SDS011;3055;50.886;14.814;2023-06-10T03:02:40;6.63;;;5.80;;
6053;SDS011;3055;50.886;14.814;2023-06-10T03:05:08;5.53;;;5.13;;
6053;SDS011;3055;50.886;14.814;2023-06-10T03:07:36;6.30;;;5.80;;
6053;SDS011;3055;50.886;14.814;2023-06-10T03:10:03;5.77;;;5.23;;
6053;SDS011;3055;50.886;14.814;2023-06-10T03:12:31;6.77;;;4.90;;
6053;SDS011;3055;50.886;14.814;2023-06-10T03:14:58;6.07;;;5.47;;
6053;SDS011;3055;50.886;14.814;2023-06-10T03:17:25;6.03;;;5.53;;
6053;SDS011;3055;50.886;14.814;2023-06-10T03:19:54;10.00;;;5.80;;
6053;SDS011;3055;50.886;14.814;2023-06-10T03:22:21;6.07;;;5.47;;
6053;SDS011;3055;50.886;14.814;2023-06-10T03:24:48;7.50;;;5.30;;
6053;SDS011;3055;50.886;14.814;2023-06-10T03:27:16;6.33;;;5.73;;
6053;SDS011;3055;50.886;14.814;2023-06-10T03:29:43;6.77;;;6.07;;
6053;SDS011;3055;50.886;14.814;2023-06-10T03:32:10;6.23;;;5.63;;
6053;SDS011;3055;50.886;14.814;2023-06-10T03:34:37;5.47;;;5.07;;
6053;SDS011;3055;50.886;14.814;2023-06-10T03:37:06;6.13;;;5.53;;
6053;SDS011;3055;50.886;14.814;2023-06-10T03:39:33;5.63;;;5.13;;
6053;SDS011;3055;50.886;14.814;2023-06-10T03:42:00;5.93;;;5.43;;
6053;SDS011;3055;50.886;14.814;2023-06-10T03:44:27;7.53;;;6.83;;
6053;SDS011;3055;50.886;14.814;2023-06-10T03:46:54;7.87;;;6.57;;
6053;SDS011;3055;50.886;14.814;2023-06-10T03:49:22;7.63;;;6.10;;
6053;SDS011;3055;50.886;14.814;2023-06-10T03:51:50;6.23;;;5.63;;
6053;SDS011;3055;50.886;14.814;2023-06-10T03:54:19;6.40;;;5.83;;
6053;SDS011;3055;50.886;14.814;2023-06-10T03:56:46;6.80;;;6.10;;
6053;SDS011;3055;50.886;14.814;2023-06-10T03:59:13;6.87;;;6.27;;
6053;SDS011;3055;50.886;14.814;2023-06-10T04:01:41;7.77;;;7.07;;
6053;SDS011;3055;50.886;14.814;2023-06-10T04:04:08;6.73;;;6.07;;
6053;SDS011;3055;50.886;14.814;2023-06-10T04:06:35;6.20;;;5.60;;
6053;SDS011;3055;50.886;14.814;2023-06-10T04:09:03;5.83;;;5.33;;
6053;SDS011;3055;50.886;14.814;2023-06-10T04:11:32;5.97;;;5.43;;
6053;SDS011;3055;50.886;14.814;2023-06-10T04:13:59;5.13;;;4.73;;
6053;SDS011;3055;50.886;14.814;2023-06-10T04:16:26;6.17;;;5.63;;
6053;SDS011;3055;50.886;14.814;2023-06-10T04:18:55;6.50;;;5.40;;
6053;SDS011;3055;50.886;14.814;2023-06-10T04:21:22;6.20;;;5.63;;
6053;SDS011;3055;50.886;14.814;2023-06-10T04:23:49;6.73;;;5.43;;
6053;SDS011;3055;50.886;14.814;2023-06-10T04:26:17;6.93;;;5.80;;
6053;SDS011;3055;50.886;14.814;2023-06-10T04:28:45;5.30;;;4.80;;
6053;SDS011;3055;50.886;14.814;2023-06-10T04:31:12;5.30;;;4.90;;
6053;SDS011;3055;50.886;14.814;2023-06-10T04:33:39;5.40;;;4.90;;
6053;SDS011;3055;50.886;14.814;2023-06-10T04:36:06;5.47;;;4.97;;
6053;SDS011;3055;50.886;14.814;2023-06-10T04:38:33;6.33;;;5.73;;
6053;SDS011;3055;50.886;14.814;2023-06-10T04:41:00;6.00;;;5.43;;
6053;SDS011;3055;50.886;14.814;2023-06-10T04:43:27;5.73;;;5.23;;
6053;SDS011;3055;50.886;14.814;2023-06-10T04:45:57;6.30;;;5.70;;
6053;SDS011;3055;50.886;14.814;2023-06-10T04:48:24;6.07;;;5.57;;
6053;SDS011;3055;50.886;14.814;2023-06-10T04:50:51;6.00;;;5.50;;
6053;SDS011;3055;50.886;14.814;2023-06-10T04:53:18;6.20;;;5.60;;
6053;SDS011;3055;50.886;14.814;2023-06-10T04:55:46;6.50;;;5.50;;
6053;SDS011;3055;50.886;14.814;2023-06-10T04:58:13;5.80;;;5.30;;
6053;SDS011;3055;50.886;14.814;2023-06-10T05:00:41;5.47;;;5.00;;
6053;SDS011;3055;50.886;14.814;2023-06-10T05:03:13;5.73;;;5.23;;
6053;SDS011;3055;50.886;14.814;2023-06-10T05:05:40;5.30;;;4.90;;
6053;SDS011;3055;50.886;14.814;2023-06-10T05:08:07;5.50;;;5.10;;
6053;SDS011;3055;50.886;14.814;2023-06-10T05:10:34;5.67;;;5.17;;
6053;SDS011;3055;50.886;14.814;2023-06-10T05:13:01;5.60;;;5.10;;
6053;SDS011;3055;50.886;14.814;2023-06-10T05:15:28;6.00;;;5.50;;
6053;SDS011;3055;50.886;14.814;2023-06-10T05:17:56;5.57;;;5.07;;
6053;SDS011;3055;50.886;14.814;2023-06-10T05:20:25;5.70;;;5.20;;
6053;SDS011;3055;50.886;14.814;2023-06-10T05:22:53;5.37;;;4.93;;
6053;SDS011;3055;50.886;14.814;2023-06-10T05:25:20;6.10;;;5.60;;
6053;SDS011;3055;50.886;14.814;2023-06-10T05:27:48;4.90;;;4.50;;
6053;SDS011;3055;50.886;14.814;2023-06-10T05:30:15;6.67;;;5.30;;
6053;SDS011;3055;50.886;14.814;2023-06-10T05:32:43;5.43;;;4.63;;
6053;SDS011;3055;50.886;14.814;2023-06-10T05:35:11;6.30;;;5.47;;
6053;SDS011;3055;50.886;14.814;2023-06-10T05:37:39;8.27;;;6.10;;
6053;SDS011;3055;50.886;14.814;2023-06-10T05:40:06;6.03;;;5.53;;
6053;SDS011;3055;50.886;14.814;2023-06-10T05:42:34;6.87;;;5.67;;
6053;SDS011;3055;50.886;14.814;2023-06-10T05:45:01;5.80;;;5.30;;
6053;SDS011;3055;50.886;14.814;2023-06-10T05:47:29;6.03;;;5.53;;
6053;SDS011;3055;50.886;14.814;2023-06-10T05:49:56;5.70;;;5.30;;
6053;SDS011;3055;50.886;14.814;2023-06-10T05:52:23;6.00;;;5.50;;
6053;SDS011;3055;50.886;14.814;2023-06-10T05:54:52;6.57;;;5.97;;
6053;SDS011;3055;50.886;14.814;2023-06-10T05:57:19;6.47;;;5.83;;
6053;SDS011;3055;50.886;14.814;2023-06-10T05:59:46;6.47;;;5.77;;
6053;SDS011;3055;50.886;14.814;2023-06-10T06:02:13;7.03;;;6.07;;
6053;SDS011;3055;50.886;14.814;2023-06-10T06:04:40;6.07;;;5.57;;
6053;SDS011;3055;50.886;14.814;2023-06-10T06:07:07;6.17;;;5.77;;
6053;SDS011;3055;50.886;14.814;2023-06-10T06:09:36;6.80;;;6.20;;
6053;SDS011;3055;50.886;14.814;2023-06-10T06:12:05;6.63;;;6.03;;
6053;SDS011;3055;50.886;14.814;2023-06-10T06:14:36;6.20;;;5.63;;
6053;SDS011;3055;50.886;14.814;2023-06-10T06:17:05;7.33;;;6.13;;
6053;SDS011;3055;50.886;14.814;2023-06-10T06:19:32;6.17;;;5.67;;
6053;SDS011;3055;50.886;14.814;2023-06-10T06:21:59;6.30;;;5.80;;
6053;SDS011;3055;50.886;14.814;2023-06-10T06:24:26;7.93;;;6.00;;
6053;SDS011;3055;50.886;14.814;2023-06-10T06:26:55;6.70;;;6.20;;
6053;SDS011;3055;50.886;14.814;2023-06-10T06:29:24;6.87;;;6.23;;
6053;SDS011;3055;50.886;14.814;2023-06-10T06:31:51;6.50;;;5.90;;
6053;SDS011;3055;50.886;14.814;2023-06-10T06:34:18;6.07;;;5.47;;
6053;SDS011;3055;50.886;14.814;2023-06-10T06:36:45;5.83;;;5.33;;
6053;SDS011;3055;50.886;14.814;2023-06-10T06:39:12;6.37;;;5.50;;
6053;SDS011;3055;50.886;14.814;2023-06-10T06:41:39;5.40;;;4.80;;
6053;SDS011;3055;50.886;14.814;2023-06-10T06:44:06;6.60;;;5.20;;
6053;SDS011;3055;50.886;14.814;2023-06-10T06:46:34;5.30;;;4.90;;
6053;SDS011;3055;50.886;14.814;2023-06-10T06:49:01;5.47;;;4.97;;
6053;SDS011;3055;50.886;14.814;2023-06-10T06:51:28;5.60;;;5.07;;
6053;SDS011;3055;50.886;14.814;2023-06-10T06:53:55;5.53;;;5.00;;
6053;SDS011;3055;50.886;14.814;2023-06-10T06:56:24;5.33;;;4.93;;
6053;SDS011;3055;50.886;14.814;2023-06-10T06:58:52;5.30;;;4.80;;
6053;SDS011;3055;50.886;14.814;2023-06-10T07:01:19;5.40;;;4.90;;
6053;SDS011;3055;50.886;14.814;2023-06-10T07:03:47;6.30;;;4.80;;
6053;SDS011;3055;50.886;14.814;2023-06-10T07:06:15;6.07;;;5.57;;
6053;SDS011;3055;50.886;14.814;2023-06-10T07:08:41;5.60;;;5.10;;
6053;SDS011;3055;50.886;14.814;2023-06-10T07:11:09;6.40;;;5.80;;
6053;SDS011;3055;50.886;14.814;2023-06-10T07:13:36;5.30;;;4.90;;
6053;SDS011;3055;50.886;14.814;2023-06-10T07:16:03;5.60;;;5.10;;
6053;SDS011;3055;50.886;14.814;2023-06-10T07:18:30;5.40;;;4.90;;
6053;SDS011;3055;50.886;14.814;2023-06-10T07:20:59;6.23;;;5.17;;
6053;SDS011;3055;50.886;14.814;2023-06-10T07:23:26;6.70;;;6.00;;
6053;SDS011;3055;50.886;14.814;2023-06-10T07:25:53;6.63;;;6.00;;
6053;SDS011;3055;50.886;14.814;2023-06-10T07:28:20;6.53;;;5.93;;
6053;SDS011;3055;50.886;14.814;2023-06-10T07:30:47;6.73;;;5.83;;
6053;SDS011;3055;50.886;14.814;2023-06-10T07:33:15;6.63;;;6.03;;
6053;SDS011;3055;50.886;14.814;2023-06-10T07:35:42;7.43;;;6.30;;
6053;SDS011;3055;50.886;14.814;2023-06-10T07:38:10;7.17;;;6.33;;
6053;SDS011;3055;50.886;14.814;2023-06-10T07:40:38;6.80;;;5.87;;
6053;SDS011;3055;50.886;14.814;2023-06-10T07:43:05;6.53;;;5.93;;
6053;SDS011;3055;50.886;14.814;2023-06-10T07:45:33;6.20;;;5.60;;
6053;SDS011;3055;50.886;14.814;2023-06-10T07:48:00;6.10;;;5.60;;
6053;SDS011;3055;50.886;14.814;2023-06-10T07:50:27;5.67;;;5.17;;
6053;SDS011;3055;50.886;14.814;2023-06-10T07:52:54;6.37;;;5.77;;
6053;SDS011;3055;50.886;14.814;2023-06-10T07:55:22;6.10;;;5.50;;
6053;SDS011;3055;50.886;14.814;2023-06-10T07:57:51;5.43;;;4.93;;
6053;SDS011;3055;50.886;14.814;2023-06-10T08:00:18;6.30;;;5.70;;
6053;SDS011;3055;50.886;14.814;2023-06-10T08:02:45;5.33;;;4.90;;
6053;SDS011;3055;50.886;14.814;2023-06-10T08:05:12;5.70;;;5.27;;
6053;SDS011;3055;50.886;14.814;2023-06-10T08:07:40;9.13;;;5.50;;
6053;SDS011;3055;50.886;14.814;2023-06-10T08:10:07;7.37;;;5.70;;
6053;SDS011;3055;50.886;14.814;2023-06-10T08:12:36;6.50;;;5.00;;
6053;SDS011;3055;50.886;14.814;2023-06-10T08:15:03;7.97;;;5.60;;
6053;SDS011;3055;50.886;14.814;2023-06-10T08:17:31;6.83;;;5.03;;
6053;SDS011;3055;50.886;14.814;2023-06-10T08:19:58;6.63;;;5.93;;
6053;SDS011;3055;50.886;14.814;2023-06-10T08:22:25;6.80;;;6.20;;
6053;SDS011;3055;50.886;14.814;2023-06-10T08:24:54;8.00;;;5.73;;
6053;SDS011;3055;50.886;14.814;2023-06-10T08:27:21;6.57;;;5.63;;
6053;SDS011;3055;50.886;14.814;2023-06-10T08:29:49;6.03;;;5.27;;
6053;SDS011;3055;50.886;14.814;2023-06-10T08:32:17;6.20;;;5.63;;
6053;SDS011;3055;50.886;14.814;2023-06-10T08:34:44;8.77;;;5.90;;
6053;SDS011;3055;50.886;14.814;2023-06-10T08:37:11;9.50;;;6.87;;
6053;SDS011;3055;50.886;14.814;2023-06-10T08:39:38;7.90;;;6.13;;
6053;SDS011;3055;50.886;14.814;2023-06-10T08:42:08;7.60;;;6.20;;
6053;SDS011;3055;50.886;14.814;2023-06-10T08:44:42;6.53;;;5.90;;
6053;SDS011;3055;50.886;14.814;2023-06-10T08:47:14;8.57;;;5.83;;
6053;SDS011;3055;50.886;14.814;2023-06-10T08:49:43;5.77;;;5.17;;
6053;SDS011;3055;50.886;14.814;2023-06-10T08:52:12;7.50;;;5.87;;
6053;SDS011;3055;50.886;14.814;2023-06-10T08:54:42;8.23;;;5.50;;
6053;SDS011;3055;50.886;14.814;2023-06-10T08:57:13;6.77;;;5.47;;
6053;SDS011;3055;50.886;14.814;2023-06-10T08:59:41;9.10;;;5.57;;
6053;SDS011;3055;50.886;14.814;2023-06-10T09:02:09;5.90;;;5.40;;
6053;SDS011;3055;50.886;14.814;2023-06-10T09:04:38;8.27;;;5.97;;
6053;SDS011;3055;50.886;14.814;2023-06-10T09:07:05;6.80;;;5.40;;
6053;SDS011;3055;50.886;14.814;2023-06-10T09:09:33;6.57;;;5.97;;
6053;SDS011;3055;50.886;14.814;2023-06-10T09:12:02;6.13;;;4.93;;
6053;SDS011;3055;50.886;14.814;2023-06-10T09:14:29;7.47;;;5.40;;
6053;SDS011;3055;50.886;14.814;2023-06-10T09:16:56;6.97;;;5.83;;
6053;SDS011;3055;50.886;14.814;2023-06-10T09:19:23;6.17;;;5.50;;
6053;SDS011;3055;50.886;14.814;2023-06-10T09:21:54;7.60;;;5.73;;
6053;SDS011;3055;50.886;14.814;2023-06-10T09:24:21;6.43;;;5.73;;
6053;SDS011;3055;50.886;14.814;2023-06-10T09:26:49;7.07;;;6.37;;
6053;SDS011;3055;50.886;14.814;2023-06-10T09:29:16;8.33;;;5.77;;
6053;SDS011;3055;50.886;14.814;2023-06-10T09:31:43;5.93;;;5.43;;
6053;SDS011;3055;50.886;14.814;2023-06-10T09:34:11;7.73;;;5.87;;
6053;SDS011;3055;50.886;14.814;2023-06-10T09:36:39;8.20;;;5.50;;
6053;SDS011;3055;50.886;14.814;2023-06-10T09:39:14;7.70;;;5.80;;
6053;SDS011;3055;50.886;14.814;2023-06-10T09:41:42;7.47;;;6.37;;
6053;SDS011;3055;50.886;14.814;2023-06-10T09:44:11;8.13;;;6.07;;
6053;SDS011;3055;50.886;14.814;2023-06-10T09:46:39;6.63;;;6.03;;
6053;SDS011;3055;50.886;14.814;2023-06-10T09:49:07;5.67;;;5.17;;
6053;SDS011;3055;50.886;14.814;2023-06-10T09:51:34;6.13;;;5.53;;
6053;SDS011;3055;50.886;14.814;2023-06-10T09:54:02;7.83;;;5.40;;
6053;SDS011;3055;50.886;14.814;2023-06-10T09:56:34;5.83;;;5.27;;
6053;SDS011;3055;50.886;14.814;2023-06-10T09:59:02;5.77;;;4.60;;
6053;SDS011;3055;50.886;14.814;2023-06-10T10:01:31;6.63;;;5.40;;
6053;SDS011;3055;50.886;14.814;2023-06-10T10:03:58;6.63;;;6.00;;
6053;SDS011;3055;50.886;14.814;2023-06-10T10:06:26;5.93;;;5.33;;
6053;SDS011;3055;50.886;14.814;2023-06-10T10:08:55;8.27;;;5.70;;
6053;SDS011;3055;50.886;14.814;2023-06-10T10:11:22;6.80;;;5.27;;
6053;SDS011;3055;50.886;14.814;2023-06-10T10:13:52;6.33;;;5.73;;
6053;SDS011;3055;50.886;14.814;2023-06-10T10:16:20;6.47;;;5.80;;
6053;SDS011;3055;50.886;14.814;2023-06-10T10:18:51;6.67;;;6.00;;
6053;SDS011;3055;50.886;14.814;2023-06-10T10:21:22;5.97;;;5.37;;
6053;SDS011;3055;50.886;14.814;2023-06-10T10:23:53;6.80;;;6.10;;
6053;SDS011;3055;50.886;14.814;2023-06-10T10:26:25;6.70;;;6.00;;
6053;SDS011;3055;50.886;14.814;2023-06-10T10:29:02;6.50;;;5.83;;
6053;SDS011;3055;50.886;14.814;2023-06-10T10:31:35;6.70;;;6.00;;
6053;SDS011;3055;50.886;14.814;2023-06-10T10:34:04;7.43;;;5.87;;
6053;SDS011;3055;50.886;14.814;2023-06-10T10:36:33;7.67;;;6.30;;
6053;SDS011;3055;50.886;14.814;2023-06-10T10:39:01;11.50;;;7.00;;
6053;SDS011;3055;50.886;14.814;2023-06-10T10:41:30;8.33;;;6.67;;
6053;SDS011;3055;50.886;14.814;2023-06-10T10:44:01;7.37;;;6.67;;
6053;SDS011;3055;50.886;14.814;2023-06-10T10:46:30;8.30;;;6.13;;
6053;SDS011;3055;50.886;14.814;2023-06-10T10:49:07;7.77;;;6.43;;
6053;SDS011;3055;50.886;14.814;2023-06-10T10:51:36;7.13;;;6.43;;
6053;SDS011;3055;50.886;14.814;2023-06-10T10:54:10;7.87;;;6.60;;
6053;SDS011;3055;50.886;14.814;2023-06-10T10:56:38;9.23;;;6.00;;
6053;SDS011;3055;50.886;14.814;2023-06-10T10:59:06;7.20;;;6.50;;
6053;SDS011;3055;50.886;14.814;2023-06-10T11:01:40;9.13;;;6.97;;
6053;SDS011;3055;50.886;14.814;2023-06-10T11:04:11;7.70;;;5.97;;
6053;SDS011;3055;50.886;14.814;2023-06-10T11:06:38;7.13;;;6.47;;
6053;SDS011;3055;50.886;14.814;2023-06-10T11:11:56;9.23;;;6.30;;
6053;SDS011;3055;50.886;14.814;2023-06-10T11:14:29;6.70;;;6.00;;
6053;SDS011;3055;50.886;14.814;2023-06-10T11:16:57;8.10;;;6.73;;
6053;SDS011;3055;50.886;14.814;2023-06-10T11:19:34;7.33;;;6.53;;
6053;SDS011;3055;50.886;14.814;2023-06-10T11:22:02;7.23;;;6.53;;
6053;SDS011;3055;50.886;14.814;2023-06-10T11:24:31;6.57;;;5.97;;
6053;SDS011;3055;50.886;14.814;2023-06-10T11:29:58;15.30;;;6.97;;
6053;SDS011;3055;50.886;14.814;2023-06-10T11:32:41;6.87;;;6.23;;
6053;SDS011;3055;50.886;14.814;2023-06-10T11:35:09;7.87;;;6.30;;
6053;SDS011;3055;50.886;14.814;2023-06-10T11:37:37;7.17;;;6.47;;
6053;SDS011;3055;50.886;14.814;2023-06-10T11:40:07;7.60;;;6.83;;
6053;SDS011;3055;50.886;14.814;2023-06-10T11:42:38;9.27;;;6.60;;
6053;SDS011;3055;50.886;14.814;2023-06-10T11:45:08;7.07;;;6.10;;
6053;SDS011;3055;50.886;14.814;2023-06-10T11:47:36;6.80;;;6.20;;
6053;SDS011;3055;50.886;14.814;2023-06-10T11:50:03;7.40;;;6.63;;
6053;SDS011;3055;50.886;14.814;2023-06-10T11:52:30;7.67;;;6.53;;
6053;SDS011;3055;50.886;14.814;2023-06-10T11:55:03;5.93;;;5.50;;
6053;SDS011;3055;50.886;14.814;2023-06-10T11:57:33;6.60;;;5.97;;
6053;SDS011;3055;50.886;14.814;2023-06-10T12:00:03;8.47;;;6.50;;
6053;SDS011;3055;50.886;14.814;2023-06-10T12:02:32;9.23;;;5.50;;
6053;SDS011;3055;50.886;14.814;2023-06-10T12:05:09;7.50;;;6.80;;
6053;SDS011;3055;50.886;14.814;2023-06-10T12:07:37;6.80;;;6.13;;
6053;SDS011;3055;50.886;14.814;2023-06-10T12:10:05;6.67;;;6.03;;
6053;SDS011;3055;50.886;14.814;2023-06-10T12:12:34;8.63;;;6.63;;
6053;SDS011;3055;50.886;14.814;2023-06-10T12:15:02;8.27;;;6.30;;
6053;SDS011;3055;50.886;14.814;2023-06-10T12:17:37;6.70;;;6.10;;
6053;SDS011;3055;50.886;14.814;2023-06-10T12:20:05;7.53;;;6.60;;
6053;SDS011;3055;50.886;14.814;2023-06-10T12:22:37;6.77;;;6.00;;
6053;SDS011;3055;50.886;14.814;2023-06-10T12:25:06;6.77;;;5.60;;
6053;SDS011;3055;50.886;14.814;2023-06-10T12:27:34;6.40;;;5.80;;
6053;SDS011;3055;50.886;14.814;2023-06-10T12:30:02;6.43;;;5.83;;
6053;SDS011;3055;50.886;14.814;2023-06-10T12:32:35;5.87;;;5.20;;
6053;SDS011;3055;50.886;14.814;2023-06-10T12:35:08;10.53;;;5.50;;
6053;SDS011;3055;50.886;14.814;2023-06-10T12:37:35;5.50;;;4.90;;
6053;SDS011;3055;50.886;14.814;2023-06-10T12:40:04;5.40;;;4.67;;
6053;SDS011;3055;50.886;14.814;2023-06-10T12:42:33;6.00;;;5.17;;
6053;SDS011;3055;50.886;14.814;2023-06-10T12:45:02;5.57;;;5.03;;
6053;SDS011;3055;50.886;14.814;2023-06-10T12:47:32;6.57;;;5.23;;
6053;SDS011;3055;50.886;14.814;2023-06-10T12:50:03;5.77;;;4.73;;
6053;SDS011;3055;50.886;14.814;2023-06-10T12:52:30;5.13;;;4.70;;
6053;SDS011;3055;50.886;14.814;2023-06-10T12:54:58;7.10;;;4.93;;
6053;SDS011;3055;50.886;14.814;2023-06-10T12:57:25;5.80;;;5.10;;
6053;SDS011;3055;50.886;14.814;2023-06-10T12:59:52;5.07;;;4.40;;
6053;SDS011;3055;50.886;14.814;2023-06-10T13:02:22;5.40;;;4.90;;
6053;SDS011;3055;50.886;14.814;2023-06-10T13:04:49;5.47;;;4.97;;
6053;SDS011;3055;50.886;14.814;2023-06-10T13:07:18;5.27;;;4.77;;
6053;SDS011;3055;50.886;14.814;2023-06-10T13:09:45;6.70;;;5.70;;
6053;SDS011;3055;50.886;14.814;2023-06-10T13:12:14;5.83;;;5.37;;
6053;SDS011;3055;50.886;14.814;2023-06-10T13:14:42;7.00;;;6.30;;
6053;SDS011;3055;50.886;14.814;2023-06-10T13:17:10;8.53;;;6.70;;
6053;SDS011;3055;50.886;14.814;2023-06-10T13:19:37;6.13;;;5.60;;
6053;SDS011;3055;50.886;14.814;2023-06-10T13:22:04;6.93;;;5.53;;
6053;SDS011;3055;50.886;14.814;2023-06-10T13:24:33;7.07;;;6.10;;
6053;SDS011;3055;50.886;14.814;2023-06-10T13:27:00;7.53;;;6.20;;
6053;SDS011;3055;50.886;14.814;2023-06-10T13:29:27;7.23;;;6.53;;
6053;SDS011;3055;50.886;14.814;2023-06-10T13:31:55;9.50;;;6.70;;
6053;SDS011;3055;50.886;14.814;2023-06-10T13:34:23;6.70;;;6.10;;
6053;SDS011;3055;50.886;14.814;2023-06-10T13:36:50;9.10;;;6.83;;
6053;SDS011;3055;50.886;14.814;2023-06-10T13:39:17;7.40;;;6.70;;
6053;SDS011;3055;50.886;14.814;2023-06-10T13:41:45;8.90;;;8.00;;
6053;SDS011;3055;50.886;14.814;2023-06-10T13:44:13;8.13;;;7.33;;
6053;SDS011;3055;50.886;14.814;2023-06-10T13:46:40;11.63;;;7.93;;
6053;SDS011;3055;50.886;14.814;2023-06-10T13:49:07;8.60;;;7.80;;
6053;SDS011;3055;50.886;14.814;2023-06-10T13:51:34;8.30;;;7.50;;
6053;SDS011;3055;50.886;14.814;2023-06-10T13:54:01;9.27;;;8.40;;
6053;SDS011;3055;50.886;14.814;2023-06-10T13:56:28;9.23;;;7.60;;
6053;SDS011;3055;50.886;14.814;2023-06-10T13:58:57;10.23;;;8.13;;
6053;SDS011;3055;50.886;14.814;2023-06-10T14:01:24;11.73;;;7.93;;
6053;SDS011;3055;50.886;14.814;2023-06-10T14:04:05;8.57;;;7.77;;
6053;SDS011;3055;50.886;14.814;2023-06-10T14:06:32;8.07;;;7.27;;
6053;SDS011;3055;50.886;14.814;2023-06-10T14:09:00;9.07;;;8.20;;
6053;SDS011;3055;50.886;14.814;2023-06-10T14:11:27;9.37;;;6.90;;
6053;SDS011;3055;50.886;14.814;2023-06-10T14:13:54;7.93;;;7.13;;
6053;SDS011;3055;50.886;14.814;2023-06-10T14:16:22;8.10;;;7.30;;
6053;SDS011;3055;50.886;14.814;2023-06-10T14:18:50;7.53;;;6.83;;
6053;SDS011;3055;50.886;14.814;2023-06-10T14:21:17;7.77;;;6.63;;
6053;SDS011;3055;50.886;14.814;2023-06-10T14:23:44;19.70;;;8.30;;
6053;SDS011;3055;50.886;14.814;2023-06-10T14:26:11;9.40;;;7.43;;
6053;SDS011;3055;50.886;14.814;2023-06-10T14:28:38;8.70;;;7.80;;
6053;SDS011;3055;50.886;14.814;2023-06-10T14:31:06;7.03;;;6.40;;
6053;SDS011;3055;50.886;14.814;2023-06-10T14:33:35;8.43;;;6.60;;
6053;SDS011;3055;50.886;14.814;2023-06-10T14:36:02;8.87;;;6.43;;
6053;SDS011;3055;50.886;14.814;2023-06-10T14:38:29;6.23;;;4.73;;
6053;SDS011;3055;50.886;14.814;2023-06-10T14:40:56;7.03;;;4.53;;
6053;SDS011;3055;50.886;14.814;2023-06-10T14:43:23;9.90;;;5.60;;
6053;SDS011;3055;50.886;14.814;2023-06-10T14:45:50;8.17;;;4.50;;
6053;SDS011;3055;50.886;14.814;2023-06-10T14:48:17;7.97;;;4.30;;
6053;SDS011;3055;50.886;14.814;2023-06-10T14:50:46;6.80;;;4.17;;
6053;SDS011;3055;50.886;14.814;2023-06-10T14:53:16;4.00;;;3.60;;
6053;SDS011;3055;50.886;14.814;2023-06-10T14:55:43;5.77;;;4.00;;
6053;SDS011;3055;50.886;14.814;2023-06-10T14:58:10;8.23;;;4.17;;
6053;SDS011;3055;50.886;14.814;2023-06-10T15:00:37;5.10;;;3.80;;
6053;SDS011;3055;50.886;14.814;2023-06-10T15:03:05;4.80;;;3.90;;
6053;SDS011;3055;50.886;14.814;2023-06-10T15:05:32;6.50;;;4.00;;
6053;SDS011;3055;50.886;14.814;2023-06-10T15:08:01;6.43;;;4.43;;
6053;SDS011;3055;50.886;14.814;2023-06-10T15:10:28;6.53;;;4.10;;
6053;SDS011;3055;50.886;14.814;2023-06-10T15:12:55;7.40;;;4.77;;